Sidman, PA (15955)

9:23 PM EDT on May 29, 2015 (GMT -0400)
Fifty Acre Road, Adams Twp | | Change Station
CLOSE
Current Station
Personal Weather Station
Location: Johnstown, PA
Elevation: 2122 ft
Nearby Weather Stations

Elev 2122 ft 40.31 °N, 78.81 °W | Updated 21 minutes ago

Overcast
Overcast
68.0 °F
Feels Like 68.0 °F
N
2.0
Wind Variable Wind from SE
Gusts 2.0 mph

Today
High -- | Low -- °F
--% Chance of Precip.
Yesterday
High -- | Low -- °F
Precip. -- in
5:48 AM 8:36 PM
Waxing Gibbous, 87% visible
Pressure 30.19 in
Visibility 10.0 miles
Clouds Overcast 11000 ft
Dew Point 49 °F
Humidity 50%
Rainfall 0.05 in
Snow Depth Not available.
UV 0 out of 12
Pollen 8.80 out of 12
Air Quality Not available.
Flu Activity Sporadic
METAR KJST 300054Z AUTO 16010KT 10SM OVC110 21/18 A3022 RMK AO2 RAE2358 SLP221 P0000 T02060178

More Conditions Fewer Conditions

Pressure 30.19 in
Visibility 10.0 miles
Clouds Overcast 11000 ft
Dew Point 49 °F
Humidity 50%
Rainfall 0.05 in
Snow Depth Not available.
UV 0 out of 12
Pollen 8.80 out of 12
Air Quality Not available.
Flu Activity Sporadic
METAR KJST 300054Z AUTO 16010KT 10SM OVC110 21/18 A3022 RMK AO2 RAE2358 SLP221 P0000 T02060178

More Conditions Fewer Conditions

Nowcast | as of 6:35 PM EDT on May 29, 2015

Widely scattered showers and thunderstorms will be across the western portion of central Pennsylvania through mid evening. Most of the activity will be west of Bradford...State College...Chambersburg line through 930 PM. Some storms will contain brief torrential downpours. The showers and thunderstorms are moving north at 10 mph.

×

10-Day Weather Forecast

Almanac

Astronomy

May. 29, 2015 Rise Set
Actual Time
Civil Twilight
Nautical Twilight
Astronomical Twilight
Moon
Length of Visible Light
Length of Day
Tomorrow will be .
, % of the Moon is Illuminated

Today's Extremes

State Highs State Lows

Community

WunderPhotos

Upload Photos

1,825,413 photos uploaded!

WunderBlogs® & News

Nearby

Air Quality

  Air Quality AQ Index Pollutant
Not available.

Snow Depth

Station Depth Elevation

Earthquake Activity

City Distance Mag. Time & Date
Minimum magnitude displayed is 2.5.

Coastal Water Temperatures

Place Temperature

Stations

Nearby Weather Stations

Station Location Temp. Windchill Dew Point Humidity Wind Precip. Elev Updated Type